Etusivu
METAR-TAF:

METAR-TAF

Lentoasemat :

Kariba, Zimbabwe

Leveyspiiri: 16-31S, Pituuspiiri: 028-53E, korkeus merenpinnasta: 518 m

Tämänhetkinen sää

Tämä raportti tehtiin 14 tuntia ja 51 minuuttia sitten, kello 06.00 UTC
tyyntä
Lämpötila 21°C
Kosteus 53%
Ilmanpaine 1022 hPa
Näkyvyys 10 km tai enemmän
ei pilviä alle 1500 m:ssä eikä cumulonimbus-pilviä

METAR: FVKB 220600Z 00000KT CAVOK 21/11 Q1022 NOSIG

Aika: 22:51 (20:51 UTC)


TAF: puuttuu

Säähavainnot ja -ennusteet yli 4000 lentoasemalta (METAR- ja TAF-raportit).

Käytössä olevat sääasemat on merkitty karttaan keltaisilla ja punaisilla pisteillä.

Aseta hiiri pisteen päälle nähdäksesi sääaseman nimen.

Klikkaa sitten nähdäksesi säähavainnot ja -ennusteet.

Kartan vaihtaminen: klikkaa mustalla rastilla varustettuja vihreitä pisteitä, niin voit zoomata sisään; viivalla varustettua vihreää pistettä, niin voit zoomata ulos tai vihreitä nuolia, niin pääset viereisille kartoille.


METAR-TAF: